Latest Weather Observations for Oakey

IDQ60901

Issued at 12:31 pm EST Saturday 13 February 2016 (issued every 10 minutes, with the page automatically refreshed every 10 minutes)

About weather observations | Map of Brisbane area stations | Latest observations for Brisbane area | Other Formats
Station Details ID: 041359 Name: OAKEY AERO Lat: -27.40 Lon: 151.74 Height: 405.69 m
Data from the previous 72 hours. | See also: Recent months at Oakey
Date/Time
EST
Tmp

°C
App
Tmp
°C
Dew
Point
°C
Rel
Hum
%
Delta-T

°C
Wind Press
QNH
hPa
Press
MSL
hPa
Rain
since
9 am
mm
Dir
 
Spd
km/h
Gust
km/h
Spd
kts
Gust
kts
13/12:30pm 29.5 27.7 17.0 47 8.0 ESE 22 32 12 17 1011.7 1009.4 0.0
13/12:00pm 29.0 26.8 15.9 45 8.2 E 22 32 12 17 1011.9 1009.6 0.0
13/11:30am 27.8 26.9 15.8 48 7.5 SSE 15 24 8 13 1012.1 1009.9 0.0
13/11:00am 26.8 25.0 15.5 50 7.0 ESE 19 30 10 16 1012.6 1010.4 0.0
13/10:30am 26.6 24.5 15.3 50 7.0 ESE 20 32 11 17 1013.0 1010.7 0.0
13/10:00am 25.7 22.1 14.2 49 6.9 E 26 35 14 19 1013.3 1011.0 0.0
13/09:30am 25.3 21.2 13.8 49 6.9 E 28 39 15 21 1013.4 1011.1 0.0
13/09:00am 24.6 21.1 13.5 50 6.6 ESE 24 32 13 17 1013.7 1011.4 0.0
13/08:30am 23.5 20.0 13.4 53 6.0 SE 24 32 13 17 1013.6 1011.3 0.0
13/08:00am 22.5 20.8 14.6 61 4.7 ESE 17 26 9 14 1013.7 1011.4 0.0
13/07:30am 20.5 20.5 15.1 71 3.2 S 9 13 5 7 1013.7 1011.4 0.0
13/07:00am 18.6 17.9 14.3 76 2.5 S 11 11 6 6 1013.8 1011.5 0.0
13/06:30am 16.1 15.0 13.0 82 1.8 S 11 13 6 7 1013.4 1011.1 0.0
13/06:00am 13.4 12.2 11.5 88 1.0 S 9 13 5 7 1013.2 1010.9 0.0
13/05:30am 13.4 12.4 10.9 85 1.3 S 7 9 4 5 1012.8 1010.6 0.0
13/05:00am 14.3 13.1 11.5 83 1.5 S 9 11 5 6 1012.6 1010.4 0.0
13/04:30am 14.9 13.1 12.0 83 1.6 SSW 13 15 7 8 1012.6 1010.4 0.0
13/04:00am 15.2 13.7 13.2 88 1.1 S 13 17 7 9 1012.5 1010.3 0.0
13/03:30am 15.1 13.1 12.8 86 1.3 SSE 15 17 8 9 1012.2 1010.0 0.0
13/03:00am 15.6 14.0 12.7 83 1.6 SE 13 15 7 8 1012.2 1010.0 0.0
13/02:30am 16.5 15.0 13.0 80 2.0 SE 13 15 7 8 1012.5 1010.3 0.0
13/02:00am 17.7 15.6 13.6 77 2.4 ESE 17 22 9 12 1013.0 1010.7 0.0
13/01:30am 17.5 15.4 13.6 78 2.3 E 17 22 9 12 1013.1 1010.8 0.0
13/01:00am 17.5 15.3 13.2 76 2.5 E 17 19 9 10 1013.3 1011.0 0.0
13/12:30am 17.5 15.3 13.2 76 2.5 ESE 17 20 9 11 1013.6 1011.3 0.0
13/12:00am 17.0 14.9 12.5 75 2.5 ESE 15 19 8 10 1013.8 1011.5 0.0
 
Date/Time
EST
Tmp

°C
App
Tmp
°C
Dew
Point
°C
Rel
Hum
%
Delta-T

°C
Wind Press
QNH
hPa
Press
MSL
hPa
Rain
since
9 am
mm
Dir
 
Spd
km/h
Gust
km/h
Spd
kts
Gust
kts
12/11:30pm 17.7 17.1 11.7 68 3.3 E 6 9 3 5 1014.2 1011.9 0.0
12/11:00pm 18.7 18.6 12.2 66 3.7 N 4 7 2 4 1014.4 1012.2 0.0
12/10:30pm 18.5 17.0 12.0 66 3.7 E 11 13 6 7 1014.5 1012.3 0.0
12/10:00pm 20.5 17.7 12.7 61 4.5 ESE 19 24 10 13 1014.5 1012.3 0.0
12/09:30pm 21.7 17.5 13.6 60 4.8 ESE 28 35 15 19 1014.5 1012.3 0.0
12/09:00pm 21.8 19.2 14.9 65 4.1 E 22 26 12 14 1014.6 1012.4 0.0
12/08:30pm 22.3 20.5 15.4 65 4.2 ENE 19 24 10 13 1014.7 1012.5 0.0
12/08:00pm 22.6 20.9 15.7 65 4.2 ENE 19 28 10 15 1014.4 1012.2 0.0
12/07:30pm 23.3 20.7 15.9 63 4.6 ENE 24 32 13 17 1014.2 1011.9 0.0
12/07:00pm 23.7 21.0 15.7 61 4.9 ENE 24 33 13 18 1013.8 1011.5 0.0
12/06:30pm 24.6 21.3 16.1 59 5.3 ENE 28 35 15 19 1013.4 1011.1 0.0
12/06:00pm 25.8 23.4 15.5 53 6.4 ENE 22 30 12 16 1012.8 1010.6 0.0
12/05:30pm 26.6 22.1 15.0 49 7.1 E 32 39 17 21 1012.5 1010.3 0.0
12/05:00pm 27.8 23.3 14.8 45 8.0 ENE 32 41 17 22 1012.2 1010.0 0.0
12/04:30pm 29.8 26.3 13.5 36 9.9 ESE 24 33 13 18 1011.8 1009.5 0.0
12/04:00pm 29.7 26.6 12.2 34 10.4 SE 20 32 11 17 1011.8 1009.5 0.0
12/03:30pm 30.0 26.4 12.0 33 10.7 ESE 22 33 12 18 1011.9 1009.6 0.0
12/03:00pm 28.9 25.8 11.5 34 10.2 SE 19 28 10 15 1012.1 1009.9 0.0
12/02:30pm 29.8 26.2 11.8 33 10.6 ESE 22 30 12 16 1012.3 1010.1 0.0
12/02:00pm 29.6 26.6 12.5 35 10.2 ESE 20 32 11 17 1012.5 1010.3 0.0
12/01:30pm 28.9 26.3 13.9 39 9.1 E 20 32 11 17 1013.0 1010.7 0.0
12/01:00pm 28.9 25.1 12.3 36 9.9 ESE 24 33 13 18 1013.2 1010.9 0.0
12/12:30pm 28.2 25.7 14.1 42 8.6 E 20 33 11 18 1013.5 1011.2 0.0
12/12:00pm 27.0 23.8 13.0 42 8.3 ESE 22 33 12 18 1013.7 1011.4 0.0
12/11:30am 25.9 23.4 14.1 48 7.1 ESE 20 30 11 16 1014.2 1011.9 0.0
12/11:00am 26.6 23.6 14.7 48 7.3 E 24 35 13 19 1014.5 1012.3 0.0
12/10:30am 26.3 23.5 14.4 48 7.2 E 22 30 12 16 1014.8 1012.6 0.0
12/10:00am 25.7 22.3 14.8 51 6.6 E 26 35 14 19 1015.0 1012.8 0.0
12/09:30am 24.8 21.3 14.6 53 6.2 E 26 32 14 17 1015.1 1012.9 0.0
12/09:00am 24.2 20.2 14.0 53 6.1 E 28 39 15 21 1015.1 1012.9 0.0
12/08:30am 23.4 19.9 14.4 57 5.4 E 26 35 14 19 1015.2 1013.0 0.0
12/08:00am 22.6 18.9 13.9 58 5.2 E 26 35 14 19 1015.2 1013.0 0.0
12/07:30am 21.7 19.0 14.6 64 4.2 ESE 22 28 12 15 1015.1 1012.9 0.0
12/07:00am 20.2 19.5 15.4 74 2.9 ESE 13 19 7 10 1014.8 1012.6 0.0
12/06:30am 18.2 18.7 15.6 85 1.6 SSE 7 9 4 5 1014.8 1012.6 0.0
12/06:00am 16.1 15.5 14.6 91 0.9 ENE 11 13 6 7 1014.3 1012.1 0.0
12/05:30am 15.5 14.4 14.4 93 0.6 ESE 13 15 7 8 1014.4 1012.2 0.0
12/05:00am 15.2 14.4 13.9 92 0.7 ESE 11 13 6 7 1014.4 1012.2 0.0
12/04:30am 15.6 15.0 14.6 94 0.6 E 11 13 6 7 1014.1 1011.8 0.0
12/04:00am 15.3 14.9 14.0 92 0.7 ESE 9 11 5 6 1014.1 1011.8 0.0
12/03:30am 15.6 15.2 14.1 91 0.9 SE 9 11 5 6 1014.1 1011.8 0.0
12/03:00am 16.2 16.0 14.6 90 0.9 S 9 9 5 5 1014.3 1012.1 0.0
12/02:30am 17.3 17.4 15.5 89 1.1 ESE 9 11 5 6 1014.2 1011.9 0.0
12/02:00am 17.7 17.7 15.3 86 1.4 SE 9 13 5 7 1014.4 1012.2 0.0
12/01:30am 18.6 18.1 16.0 85 1.6 SE 13 17 7 9 1014.2 1011.9 0.0
12/01:00am 19.2 18.0 16.1 82 1.9 ESE 17 24 9 13 1014.2 1011.9 0.0
12/12:30am 19.7 18.0 16.2 80 2.1 E 20 26 11 14 1014.3 1012.1 0.0
12/12:00am 19.4 18.0 15.5 78 2.3 SE 17 22 9 12 1014.8 1012.6 0.0
 
Date/Time
EST
Tmp

°C
App
Tmp
°C
Dew
Point
°C
Rel
Hum
%
Delta-T

°C
Wind Press
QNH
hPa
Press
MSL
hPa
Rain
since
9 am
mm
Dir
 
Spd
km/h
Gust
km/h
Spd
kts
Gust
kts
11/11:30pm 20.5 17.8 15.5 73 3.0 E 24 30 13 16 1014.9 1012.7 0.0
11/11:00pm 20.7 18.5 15.0 70 3.4 ESE 20 26 11 14 1014.9 1012.7 0.0
11/10:30pm 21.1 18.5 15.0 68 3.7 E 22 30 12 16 1014.9 1012.7 0.0
11/10:00pm 21.7 18.9 15.3 67 3.9 ENE 24 33 13 18 1014.6 1012.4 0.0
11/09:30pm 21.4 20.7 16.4 73 3.1 ENE 15 22 8 12 1014.7 1012.5 0.0
11/09:00pm 21.6 21.0 16.6 73 3.1 ENE 15 20 8 11 1014.4 1012.2 0.0
11/08:30pm 22.4 21.1 16.7 70 3.5 ENE 19 26 10 14 1014.2 1011.9 0.0
11/08:00pm 23.3 21.4 16.8 67 4.1 NE 22 32 12 17 1013.8 1011.5 0.0
11/07:30pm 23.9 21.6 16.7 64 4.5 ENE 24 32 13 17 1013.6 1011.3 0.0
11/07:00pm 25.0 22.6 14.5 52 6.4 ENE 20 28 11 15 1013.0 1010.7 0.0
11/06:30pm 26.2 23.3 14.0 47 7.4 ENE 22 28 12 15 1012.6 1010.4 0.0
11/06:00pm 27.7 24.2 12.1 38 9.2 E 22 30 12 16 1012.1 1009.9 0.0
11/05:30pm 28.6 24.7 12.1 36 9.8 ESE 24 30 13 16 1011.8 1009.5 0.0
11/05:00pm 29.1 25.8 11.6 33 10.3 ESE 20 26 11 14 1011.5 1009.2 0.0
11/04:30pm 29.2 25.9 10.8 32 10.7 E 19 28 10 15 1011.5 1009.2 0.0
11/04:00pm 29.7 27.0 11.7 33 10.6 SE 17 33 9 18 1011.5 1009.2 0.0
11/03:30pm 28.4 24.9 11.0 34 10.1 E 20 32 11 17 1011.7 1009.4 0.0
11/03:00pm 29.3 26.4 12.3 35 10.1 ESE 19 30 10 16 1011.9 1009.6 0.0
11/02:30pm 29.4 26.4 11.9 34 10.3 ESE 19 33 10 18 1012.0 1009.7 0.0
11/02:00pm 29.1 26.4 11.6 33 10.3 ESE 17 28 9 15 1012.3 1010.1 0.0
11/01:30pm 28.5 25.2 11.6 35 9.9 E 20 32 11 17 1012.8 1010.6 0.0
11/01:00pm 28.5 26.0 12.4 37 9.6 E 17 28 9 15 1013.1 1010.8 0.0
11/12:30pm 27.7 24.9 13.3 41 8.6 E 20 28 11 15 1013.7 1011.4 0.0
11/12:00pm 27.3 24.2 13.3 42 8.4 E 22 32 12 17 1014.1 1011.8 0.0
11/11:30am 27.4 25.5 15.1 47 7.6 E 19 28 10 15 1014.4 1012.2 0.0
11/11:00am 26.2 23.7 14.0 47 7.4 E 20 33 11 18 1014.7 1012.5 0.0
11/10:30am 26.2 23.0 14.3 48 7.2 ENE 24 43 13 23 1014.6 1012.4 0.0
11/10:00am 25.4 22.3 14.5 51 6.6 E 24 35 13 19 1014.9 1012.7 0.0
11/09:30am 24.6 21.7 15.0 55 5.8 ENE 24 32 13 17 1014.9 1012.7 0.0
11/09:00am 24.1 20.5 15.3 58 5.4 ESE 28 37 15 20 1014.8 1012.6 0.0
11/08:30am 23.5 20.4 15.5 60 4.9 E 26 32 14 17 1014.8 1012.6 0.0
11/08:00am 22.5 19.5 15.8 66 4.1 ENE 26 33 14 18 1014.9 1012.7 0.0
11/07:30am 21.6 19.2 16.3 72 3.3 E 24 35 13 19 1014.8 1012.6 0.0
11/07:00am 20.5 20.2 16.5 78 2.5 ENE 13 19 7 10 1014.7 1012.5 0.0
11/06:30am 19.1 18.8 16.5 85 1.6 ENE 13 19 7 10 1014.3 1012.1 0.0
11/06:00am 17.7 18.0 16.0 90 1.0 E 9 13 5 7 1014.0 1011.7 0.0
11/05:30am 16.8 17.2 15.2 90 0.9 SE 7 9 4 5 1013.8 1011.5 0.0
11/05:00am 17.4 17.8 15.4 88 1.2 ESE 7 11 4 6 1013.6 1011.3 0.0
11/04:30am 17.2 17.6 15.2 88 1.2 SE 7 9 4 5 1013.4 1011.1 0.0
11/04:00am 17.1 17.4 15.1 88 1.2 SSE 7 11 4 6 1013.1 1010.8 0.0
11/03:30am 17.4 18.1 15.6 89 1.1 SSE 6 9 3 5 1013.1 1010.8 0.0
11/03:00am 17.0 17.5 15.0 88 1.2 E 6 7 3 4 1013.2 1010.9 0.0
11/02:30am 17.6 18.0 15.2 86 1.4 ENE 7 9 4 5 1013.3 1011.0 0.0
11/02:00am 17.6 17.9 15.0 85 1.5 ENE 7 11 4 6 1013.6 1011.3 0.0
11/01:30am 18.4 17.4 15.5 83 1.7 ENE 15 19 8 10 1013.7 1011.4 0.0
11/01:00am 19.0 18.0 15.5 80 2.1 ENE 15 20 8 11 1013.9 1011.6 0.0
11/12:30am 19.5 17.7 15.4 77 2.5 E 19 24 10 13 1014.2 1011.9 0.0
11/12:00am 19.9 18.0 15.7 77 2.5 ENE 20 26 11 14 1014.5 1012.3 0.0
 
Date/Time
EST
Tmp

°C
App
Tmp
°C
Dew
Point
°C
Rel
Hum
%
Delta-T

°C
Wind Press
QNH
hPa
Press
MSL
hPa
Rain
since
9 am
mm
Dir
 
Spd
km/h
Gust
km/h
Spd
kts
Gust
kts
10/11:30pm 20.2 18.5 16.2 78 2.4 ENE 20 32 11 17 1014.7 1012.5 0.0
10/11:00pm 20.2 19.1 16.4 79 2.3 ENE 17 20 9 11 1014.8 1012.6 0.0
10/10:30pm 20.6 19.7 16.8 79 2.3 ENE 17 22 9 12 1014.9 1012.7 0.0
10/10:00pm 20.7 20.5 17.5 82 2.0 ENE 15 20 8 11 1014.9 1012.7 0.0
10/09:30pm 21.0 21.6 17.6 81 2.1 ENE 11 15 6 8 1014.9 1012.7 0.0
10/09:00pm 22.0 21.5 17.8 77 2.6 NE 17 22 9 12 1014.7 1012.5 0.0
10/08:30pm 22.3 21.8 17.0 72 3.3 NE 15 19 8 10 1014.4 1012.2 0.0
10/08:00pm 22.7 21.1 15.0 61 4.7 E 17 20 9 11 1014.0 1011.7 0.0
10/07:30pm 22.3 21.2 14.4 61 4.7 E 13 15 7 8 1013.7 1011.4 0.0
10/07:00pm 23.9 22.4 14.3 55 5.8 ENE 15 19 8 10 1013.5 1011.2 0.0
10/06:30pm 25.2 23.2 14.0 49 6.7 ENE 17 20 9 11 1013.1 1010.8 0.0
10/06:00pm 26.9 24.6 14.0 45 7.8 ENE 19 24 10 13 1012.7 1010.5 0.0
10/05:30pm 27.9 25.1 12.7 39 9.0 ENE 19 24 10 13 1012.5 1010.3 0.0
10/05:00pm 28.2 25.8 12.5 37 9.3 E 17 26 9 14 1012.3 1010.1 0.0
10/04:30pm 28.6 27.0 12.9 38 9.4 ENE 13 22 7 12 1012.0 1009.7 0.0
10/04:00pm 28.5 26.0 11.1 34 10.1 ENE 15 24 8 13 1012.1 1009.9 0.0
10/03:30pm 28.7 25.8 12.2 36 9.8 ENE 19 30 10 16 1012.3 1010.1 0.0
10/03:00pm 28.5 25.8 12.8 38 9.4 E 19 28 10 15 1012.6 1010.4 0.0
10/02:30pm 28.3 27.0 13.8 41 8.8 E 13 22 7 12 1012.8 1010.6 0.0
10/02:00pm 27.7 26.0 13.6 42 8.5 ENE 15 22 8 12 1013.3 1011.0 0.0
10/01:30pm 27.3 25.0 12.9 41 8.6 E 17 28 9 15 1013.6 1011.3 0.0
10/01:00pm 27.3 26.4 13.6 43 8.3 E 11 19 6 10 1014.1 1011.8 0.0

Latest Capital City Observations: Canberra | Sydney | Melbourne | Brisbane | Adelaide | Perth | Hobart | Darwin

Other Formats:

Comma delimited format used in spreadsheet applications
http://www.bom.gov.au/fwo/IDQ60901/IDQ60901.94552.axf

JavaScript Object Notation format (JSON) in row-major order
http://www.bom.gov.au/fwo/IDQ60901/IDQ60901.94552.json